Time;durP1;ratioP1;P1;durP2;ratioP2;P2;SDS_P1;SDS_P2;PMS_P1;PMS_P2;Temp;Humidity;BMP_temperature;BMP_pressure;BME280_temperature;BME280_humidity;BME280_pressure;Samples;Min_cycle;Max_cycle;Signal;HPM_P1;HPM_P2
2021/05/26 00:02:04;;;;;;;9.15;4.57;;;9.20;99.90;;;;;;4961512;28;20062;-90
2021/05/26 00:04:32;;;;;;;12.55;4.45;;;9.80;99.90;;;;;;4967419;28;20269;-89
2021/05/26 00:07:00;;;;;;;8.52;4.38;;;9.10;99.90;;;;;;4958976;28;20121;-90
2021/05/26 00:09:29;;;;;;;7.70;3.50;;;9.20;99.90;;;;;;4973139;28;20049;-89
2021/05/26 00:11:58;;;;;;;12.13;6.28;;;9.00;99.90;;;;;;4970581;28;20053;-89
2021/05/26 00:14:27;;;;;;;10.55;4.75;;;9.00;99.90;;;;;;4974731;28;20051;-89
2021/05/26 00:16:55;;;;;;;13.70;5.00;;;9.00;99.90;;;;;;5002293;28;20058;-89
2021/05/26 00:19:23;;;;;;;10.55;4.85;;;9.00;99.90;;;;;;4957780;28;20050;-88
2021/05/26 00:21:51;;;;;;;11.98;5.55;;;9.10;99.90;;;;;;4963875;28;20050;-90
2021/05/26 00:24:19;;;;;;;7.68;5.25;;;8.90;99.90;;;;;;4990805;28;20379;-88
2021/05/26 00:26:47;;;;;;;9.32;3.95;;;8.90;99.90;;;;;;4972298;28;20077;-88
2021/05/26 00:29:15;;;;;;;11.40;5.82;;;9.80;99.90;;;;;;4985825;28;20061;-89
2021/05/26 00:31:43;;;;;;;8.93;4.43;;;10.00;99.90;;;;;;4951823;28;20050;-89
2021/05/26 00:34:10;;;;;;;7.63;4.57;;;8.80;99.90;;;;;;4953988;28;20061;-90
2021/05/26 00:36:38;;;;;;;11.48;4.93;;;9.00;99.90;;;;;;4971324;28;20696;-88
2021/05/26 00:39:06;;;;;;;9.98;5.20;;;8.80;99.90;;;;;;4955661;28;20046;-89
2021/05/26 00:41:37;;;;;;;11.70;4.93;;;8.80;99.90;;;;;;4958738;28;20038;-89
2021/05/26 00:44:06;;;;;;;13.00;5.78;;;9.20;99.90;;;;;;4977261;28;20062;-89
2021/05/26 00:46:43;;;;;;;17.20;6.60;;;8.70;99.90;;;;;;4957017;28;20058;-89
2021/05/26 00:49:13;;;;;;;12.40;5.75;;;8.70;99.90;;;;;;4974639;28;20410;-89
2021/05/26 00:51:41;;;;;;;14.13;6.15;;;8.70;99.90;;;;;;4971182;28;20051;-87
2021/05/26 00:54:10;;;;;;;19.17;5.50;;;8.90;99.90;;;;;;4976107;28;20513;-88
2021/05/26 00:56:38;;;;;;;15.65;5.95;;;8.70;99.90;;;;;;4959805;28;20054;-88
2021/05/26 00:59:07;;;;;;;12.70;6.53;;;8.70;99.90;;;;;;4960313;28;20046;-89
2021/05/26 01:01:35;;;;;;;15.52;7.15;;;9.20;99.90;;;;;;4957350;28;20409;-88
2021/05/26 01:04:05;;;;;;;15.95;7.03;;;8.60;99.90;;;;;;4973971;28;20049;-90
2021/05/26 01:06:33;;;;;;;11.15;6.15;;;8.60;99.90;;;;;;4957515;28;20058;-89
2021/05/26 01:09:01;;;;;;;13.65;7.45;;;8.90;99.90;;;;;;5007155;28;20047;-87
2021/05/26 01:11:29;;;;;;;16.67;8.23;;;9.60;99.90;;;;;;4957011;28;20055;-89
2021/05/26 01:13:58;;;;;;;11.93;5.82;;;8.60;99.90;;;;;;4976103;28;20081;-89
2021/05/26 01:16:27;;;;;;;17.00;7.75;;;8.50;99.90;;;;;;4976114;28;20061;-88
2021/05/26 01:18:57;;;;;;;14.90;7.35;;;8.50;99.90;;;;;;4959287;28;20077;-89
2021/05/26 01:21:30;;;;;;;15.18;6.78;;;8.50;99.90;;;;;;5002703;28;20046;-88
2021/05/26 01:23:58;;;;;;;14.10;8.07;;;8.50;99.90;;;;;;4986916;28;20046;-89
2021/05/26 01:26:32;;;;;;;25.20;8.43;;;8.50;99.90;;;;;;4985278;28;20054;-88
2021/05/26 01:29:01;;;;;;;18.90;7.93;;;8.40;99.90;;;;;;4983479;28;20053;-87
2021/05/26 01:31:29;;;;;;;14.88;7.47;;;8.80;99.90;;;;;;4964266;28;20046;-88
2021/05/26 01:34:06;;;;;;;15.73;7.50;;;8.30;99.90;;;;;;4966473;28;20057;-89
2021/05/26 01:36:42;;;;;;;17.85;7.63;;;8.40;99.90;;;;;;4980067;28;20069;-88
2021/05/26 01:39:10;;;;;;;31.67;8.93;;;8.30;99.90;;;;;;4963324;28;20533;-87
2021/05/26 01:41:38;;;;;;;17.45;7.32;;;8.30;99.90;;;;;;4951842;28;20053;-87
2021/05/26 01:44:07;;;;;;;19.50;9.05;;;8.30;99.90;;;;;;4973428;28;20065;-89
2021/05/26 01:46:39;;;;;;;15.57;8.30;;;9.40;99.90;;;;;;4972942;28;20058;-89
2021/05/26 01:49:08;;;;;;;19.10;9.45;;;8.30;99.90;;;;;;4958009;28;20431;-89
2021/05/26 01:51:37;;;;;;;23.23;9.43;;;8.20;99.90;;;;;;4982102;28;20050;-89
2021/05/26 01:54:04;;;;;;;24.17;10.52;;;8.20;99.90;;;;;;4992927;28;20059;-89
2021/05/26 01:56:34;;;;;;;21.70;8.27;;;8.20;99.90;;;;;;4963154;28;20050;-88
2021/05/26 01:59:09;;;;;;;20.20;8.63;;;8.20;99.90;;;;;;4966281;28;20062;-89
2021/05/26 02:01:39;;;;;;;20.77;8.60;;;8.20;99.90;;;;;;4977960;28;20051;-88
2021/05/26 02:04:08;;;;;;;21.38;9.48;;;8.20;99.90;;;;;;4977429;28;20390;-88
2021/05/26 02:06:45;;;;;;;18.20;8.05;;;8.20;99.90;;;;;;4972706;28;20050;-88
2021/05/26 02:09:13;;;;;;;17.75;9.77;;;8.10;99.90;;;;;;4978955;28;20405;-89
2021/05/26 02:14:29;;;;;;;17.98;8.10;;;8.10;99.90;;;;;;4978777;28;20054;-88
2021/05/26 02:16:59;;;;;;;;;;;8.10;99.90;;;;;;4963973;28;20069;-90
2021/05/26 02:19:27;;;;;;;22.40;9.38;;;8.10;99.90;;;;;;4971726;28;19937;-89
2021/05/26 02:21:55;;;;;;;20.30;8.95;;;9.30;99.90;;;;;;4986535;28;20062;-88
2021/05/26 02:24:24;;;;;;;20.95;9.18;;;8.00;99.90;;;;;;5004150;28;20061;-89
2021/05/26 02:26:52;;;;;;;22.45;10.68;;;8.00;99.90;;;;;;5004392;28;20054;-88
2021/05/26 02:29:21;;;;;;;21.63;10.38;;;8.10;99.90;;;;;;4968772;28;20050;-87
2021/05/26 02:31:49;;;;;;;22.73;10.80;;;8.10;99.90;;;;;;4995582;28;20070;-89
2021/05/26 02:34:17;;;;;;;21.40;9.60;;;8.00;99.90;;;;;;4961088;28;20054;-87
2021/05/26 02:36:46;;;;;;;24.05;10.73;;;8.00;99.90;;;;;;4956567;28;20053;-88
2021/05/26 02:39:15;;;;;;;22.95;9.55;;;8.70;99.90;;;;;;4976298;28;20418;-87
2021/05/26 02:41:43;;;;;;;25.10;12.10;;;8.00;99.90;;;;;;4992419;28;20065;-88
2021/05/26 02:44:16;;;;;;;20.13;10.32;;;8.20;99.90;;;;;;4979203;28;20061;-88
2021/05/26 02:46:44;;;;;;;17.63;9.02;;;8.80;99.90;;;;;;4951507;28;20050;-89
2021/05/26 02:49:12;;;;;;;23.23;10.40;;;9.30;99.90;;;;;;4973023;28;20054;-89
2021/05/26 02:51:43;;;;;;;20.75;8.48;;;7.90;99.90;;;;;;4959675;28;20050;-88
2021/05/26 02:54:12;;;;;;;23.30;9.13;;;7.90;99.90;;;;;;4956109;28;20050;-87
2021/05/26 02:56:43;;;;;;;21.15;8.05;;;8.70;99.90;;;;;;4977209;28;20055;-89
2021/05/26 02:59:30;;;;;;;21.13;8.85;;;7.90;99.90;;;;;;4986025;28;20498;-89
2021/05/26 03:02:16;;;;;;;23.35;9.45;;;7.80;99.90;;;;;;4992974;28;20411;-89
2021/05/26 03:05:05;;;;;;;15.98;8.27;;;7.80;99.90;;;;;;4976145;28;20054;-89
2021/05/26 03:07:34;;;;;;;33.63;9.23;;;7.80;99.90;;;;;;4973102;28;20438;-88
2021/05/26 03:10:05;;;;;;;17.48;8.15;;;8.00;99.90;;;;;;4967034;28;20046;-87
2021/05/26 03:12:38;;;;;;;19.33;8.85;;;7.80;99.90;;;;;;4983806;28;20050;-89
2021/05/26 03:15:14;;;;;;;16.33;8.05;;;8.20;99.90;;;;;;4983404;28;20058;-88
2021/05/26 03:17:43;;;;;;;23.17;8.20;;;7.70;99.90;;;;;;4965656;28;20046;-89
2021/05/26 03:20:16;;;;;;;19.00;8.65;;;8.70;99.90;;;;;;4979432;28;20054;-88
2021/05/26 03:23:14;;;;;;;17.73;8.15;;;8.20;99.90;;;;;;4998915;28;20057;-88
2021/05/26 03:26:00;;;;;;;19.02;8.43;;;7.60;99.90;;;;;;4997026;28;20046;-89
2021/05/26 03:28:28;;;;;;;18.50;9.73;;;7.60;99.90;;;;;;4991222;28;20047;-89
2021/05/26 03:30:56;;;;;;;18.50;8.07;;;8.60;99.90;;;;;;4975659;28;20062;-89
2021/05/26 03:33:24;;;;;;;15.75;6.97;;;7.90;99.90;;;;;;4990803;28;20069;-87
2021/05/26 03:35:55;;;;;;;21.27;8.68;;;7.90;99.90;;;;;;4956685;28;20049;-87
2021/05/26 03:38:24;;;;;;;17.08;8.57;;;7.50;99.90;;;;;;4974309;28;20406;-88
2021/05/26 03:40:57;;;;;;;19.05;9.30;;;7.50;99.90;;;;;;4975171;28;20050;-88
2021/05/26 03:43:30;;;;;;;15.68;9.38;;;7.50;99.90;;;;;;4991451;28;20506;-88
2021/05/26 03:46:00;;;;;;;20.85;9.85;;;8.20;99.90;;;;;;4971665;28;20731;-87
2021/05/26 03:48:30;;;;;;;23.40;9.25;;;7.90;99.90;;;;;;4984284;28;20057;-88
2021/05/26 03:51:00;;;;;;;16.48;8.15;;;7.30;99.90;;;;;;5000782;28;20042;-89
2021/05/26 03:53:28;;;;;;;19.17;9.48;;;9.00;99.90;;;;;;4984996;28;20057;-89
2021/05/26 03:55:59;;;;;;;21.30;7.93;;;8.00;99.90;;;;;;4981319;28;20776;-89
2021/05/26 03:58:35;;;;;;;13.70;7.10;;;7.20;99.90;;;;;;4990259;28;20057;-86
2021/05/26 04:01:12;;;;;;;19.85;7.78;;;7.20;99.90;;;;;;4962630;28;20050;-88
2021/05/26 04:03:42;;;;;;;14.57;6.90;;;7.90;99.90;;;;;;4989899;28;20057;-88
2021/05/26 04:06:14;;;;;;;18.83;10.07;;;7.20;99.90;;;;;;4973924;28;20065;-89
2021/05/26 04:08:42;;;;;;;22.10;9.38;;;7.40;99.90;;;;;;4950043;28;20058;-88
2021/05/26 04:11:10;;;;;;;22.92;11.35;;;7.50;99.90;;;;;;4973615;28;20050;-89
2021/05/26 04:14:01;;;;;;;14.90;7.37;;;7.20;99.90;;;;;;4960475;28;20055;-88
2021/05/26 04:16:52;;;;;;;16.42;7.07;;;7.20;99.90;;;;;;4970473;28;20054;-89
2021/05/26 04:19:44;;;;;;;19.38;8.40;;;7.30;99.90;;;;;;4974532;28;20046;-88
2021/05/26 04:22:12;;;;;;;17.67;9.07;;;7.20;99.90;;;;;;4980708;28;20053;-88
2021/05/26 04:24:48;;;;;;;13.63;7.05;;;7.70;99.90;;;;;;4961063;28;20057;-89
2021/05/26 04:27:16;;;;;;;15.05;7.40;;;7.20;99.90;;;;;;4958447;28;20054;-89
2021/05/26 04:29:44;;;;;;;19.40;7.95;;;7.30;99.90;;;;;;4973536;28;20054;-89
2021/05/26 04:32:13;;;;;;;9.55;5.30;;;7.20;99.90;;;;;;4972343;28;20057;-87
2021/05/26 04:34:41;;;;;;;19.83;6.45;;;7.80;99.90;;;;;;4960235;28;20053;-89
2021/05/26 04:37:08;;;;;;;14.75;7.30;;;7.20;99.90;;;;;;4955740;28;20444;-89
2021/05/26 04:39:36;;;;;;;14.75;6.10;;;7.30;99.90;;;;;;4972672;28;20050;-88
2021/05/26 04:42:04;;;;;;;24.23;9.00;;;8.20;99.90;;;;;;4972167;28;20050;-89
2021/05/26 04:44:32;;;;;;;16.75;6.25;;;7.30;99.90;;;;;;4972759;28;20050;-89
2021/05/26 04:47:01;;;;;;;13.55;6.30;;;7.30;99.90;;;;;;4973224;28;20047;-88
2021/05/26 04:49:28;;;;;;;12.30;7.82;;;7.40;99.90;;;;;;4972387;28;20077;-89
2021/05/26 04:51:57;;;;;;;18.10;6.45;;;8.10;99.90;;;;;;4971493;28;20046;-89
2021/05/26 04:54:24;;;;;;;16.55;5.60;;;7.40;99.90;;;;;;4990178;28;20050;-88
2021/05/26 04:56:52;;;;;;;10.60;6.15;;;7.50;99.90;;;;;;4963141;28;20054;-89
2021/05/26 04:59:20;;;;;;;14.82;6.63;;;8.80;99.90;;;;;;4975618;28;20058;-88
2021/05/26 05:01:48;;;;;;;18.13;7.10;;;7.50;99.90;;;;;;4989724;28;20054;-88
2021/05/26 05:04:16;;;;;;;13.75;5.07;;;7.60;99.90;;;;;;4944941;28;20057;-88
2021/05/26 05:06:44;;;;;;;18.73;5.28;;;7.60;99.90;;;;;;4959649;28;20042;-88
2021/05/26 05:09:12;;;;;;;18.20;5.32;;;8.90;99.90;;;;;;4956025;28;20047;-88
2021/05/26 05:11:40;;;;;;;13.75;4.97;;;7.80;99.90;;;;;;4976020;28;20061;-85
2021/05/26 05:14:08;;;;;;;15.55;5.50;;;7.90;99.90;;;;;;4989259;28;20057;-88
2021/05/26 05:16:36;;;;;;;14.77;6.57;;;8.40;99.90;;;;;;4991189;28;20061;-88
2021/05/26 05:19:04;;;;;;;12.15;4.63;;;8.00;99.90;;;;;;4973100;28;20050;-89
2021/05/26 05:21:32;;;;;;;11.82;5.68;;;8.10;99.90;;;;;;4989691;28;20054;-88
2021/05/26 05:24:00;;;;;;;11.05;4.22;;;9.10;99.90;;;;;;4952892;28;20062;-86
2021/05/26 05:26:28;;;;;;;12.27;4.88;;;8.20;99.90;;;;;;4987488;28;20062;-88
2021/05/26 05:29:00;;;;;;;10.88;4.30;;;8.90;99.90;;;;;;4974277;28;20058;-88
2021/05/26 05:31:31;;;;;;;21.33;5.45;;;9.70;99.90;;;;;;4976350;28;20054;-87
2021/05/26 05:33:59;;;;;;;15.52;5.30;;;8.40;99.90;;;;;;4991956;28;20066;-86
2021/05/26 05:36:29;;;;;;;11.60;4.60;;;8.70;99.90;;;;;;4987125;28;20069;-88
2021/05/26 05:38:57;;;;;;;10.30;4.50;;;9.60;99.90;;;;;;4989312;28;20050;-88
2021/05/26 05:41:24;;;;;;;8.18;4.50;;;8.50;99.90;;;;;;4989936;28;20058;-88
2021/05/26 05:43:52;;;;;;;9.88;4.63;;;8.40;99.90;;;;;;4973237;28;20050;-88
2021/05/26 05:46:20;;;;;;;9.48;4.40;;;8.80;99.90;;;;;;4950300;28;20402;-87
2021/05/26 05:48:48;;;;;;;9.32;5.03;;;8.70;99.90;;;;;;4981493;28;20062;-88
2021/05/26 05:51:16;;;;;;;9.50;4.97;;;8.90;99.90;;;;;;4989548;28;20053;-88
2021/05/26 05:53:44;;;;;;;8.32;4.32;;;8.80;99.90;;;;;;4989680;28;20050;-88
2021/05/26 05:56:11;;;;;;;18.27;5.35;;;8.90;99.90;;;;;;4957627;28;20053;-88
2021/05/26 05:58:39;;;;;;;14.30;4.90;;;8.90;99.90;;;;;;4956680;28;20478;-87
2021/05/26 06:01:07;;;;;;;12.02;5.90;;;9.50;99.90;;;;;;4989800;28;20050;-88
2021/05/26 06:03:34;;;;;;;8.88;4.28;;;9.30;99.90;;;;;;4972037;28;20526;-89
2021/05/26 06:06:02;;;;;;;13.93;4.80;;;9.10;99.90;;;;;;4972491;28;20057;-89
2021/05/26 06:08:30;;;;;;;8.07;4.82;;;9.10;99.90;;;;;;5010432;28;20046;-89
2021/05/26 06:10:58;;;;;;;8.18;5.47;;;9.20;99.90;;;;;;4985630;28;20069;-87
2021/05/26 06:13:27;;;;;;;13.52;5.35;;;9.10;99.90;;;;;;4971845;28;20190;-88
2021/05/26 06:15:55;;;;;;;13.88;4.95;;;9.20;99.90;;;;;;4985965;28;20050;-88
2021/05/26 06:18:25;;;;;;;11.80;4.07;;;10.00;99.90;;;;;;4978678;28;20046;-87
2021/05/26 06:20:52;;;;;;;19.00;6.05;;;9.20;99.90;;;;;;4983304;28;20058;-87
2021/05/26 06:23:26;;;;;;;8.55;3.88;;;9.30;99.90;;;;;;4963183;28;20050;-88
2021/05/26 06:25:54;;;;;;;16.15;4.35;;;9.30;99.90;;;;;;4968802;28;20068;-88
2021/05/26 06:28:22;;;;;;;9.93;4.22;;;9.40;99.90;;;;;;4997966;28;20050;-87
2021/05/26 06:30:50;;;;;;;10.25;6.20;;;9.60;99.90;;;;;;4980995;28;20079;-88
2021/05/26 06:33:18;;;;;;;7.45;3.80;;;10.30;99.90;;;;;;4967146;28;20051;-88
2021/05/26 06:35:46;;;;;;;7.82;4.68;;;9.60;99.90;;;;;;4949648;28;20054;-87
2021/05/26 06:38:14;;;;;;;10.27;3.70;;;9.90;99.90;;;;;;4985471;28;20061;-87
2021/05/26 06:40:41;;;;;;;11.90;4.05;;;9.80;99.90;;;;;;4988485;28;20070;-87
2021/05/26 06:43:09;;;;;;;13.90;4.95;;;10.70;99.90;;;;;;4964188;28;20525;-87
2021/05/26 06:45:37;;;;;;;10.68;4.30;;;10.00;99.90;;;;;;4951933;28;20046;-87
2021/05/26 06:48:05;;;;;;;10.07;4.10;;;10.60;99.90;;;;;;4986328;28;20053;-88
2021/05/26 06:50:33;;;;;;;9.30;4.03;;;10.20;99.90;;;;;;4982954;28;20065;-88
2021/05/26 06:53:01;;;;;;;7.40;4.20;;;10.30;99.90;;;;;;4971914;28;20069;-88
2021/05/26 06:55:29;;;;;;;7.75;3.40;;;10.30;99.90;;;;;;4974697;28;20061;-88
2021/05/26 06:57:57;;;;;;;6.97;3.72;;;10.40;99.90;;;;;;4995292;28;20101;-87
2021/05/26 07:00:25;;;;;;;11.27;4.57;;;10.30;99.90;;;;;;4982053;28;20054;-89
2021/05/26 07:02:53;;;;;;;7.32;5.05;;;10.40;99.90;;;;;;4955227;28;20070;-89
2021/05/26 07:05:21;;;;;;;13.27;4.70;;;10.30;99.90;;;;;;4982470;28;20501;-86
2021/05/26 07:07:49;;;;;;;9.40;4.25;;;10.40;99.90;;;;;;4978078;28;20243;-88
2021/05/26 07:10:18;;;;;;;7.85;4.60;;;10.40;99.90;;;;;;4984182;28;20077;-89
2021/05/26 07:12:48;;;;;;;13.93;6.30;;;10.50;99.90;;;;;;4982407;28;20057;-89
2021/05/26 07:15:17;;;;;;;7.88;3.80;;;10.60;99.90;;;;;;4996704;28;20046;-89
2021/05/26 07:17:46;;;;;;;11.25;4.88;;;10.70;99.90;;;;;;4979413;28;20058;-89
2021/05/26 07:20:14;;;;;;;21.35;4.15;;;10.80;99.90;;;;;;4963951;28;20050;-90
2021/05/26 07:22:43;;;;;;;10.20;4.20;;;11.00;99.90;;;;;;4977347;28;20074;-90
2021/05/26 07:25:12;;;;;;;12.35;4.32;;;10.60;99.90;;;;;;4987314;28;20048;-91
2021/05/26 07:27:40;;;;;;;8.18;4.18;;;11.20;99.90;;;;;;4984148;28;20057;-90
2021/05/26 07:30:21;;;;;;;13.38;4.50;;;11.30;99.90;;;;;;4982996;28;20047;-88
2021/05/26 07:32:54;;;;;;;13.77;6.38;;;11.40;99.90;;;;;;4986140;28;20053;-90
2021/05/26 07:35:22;;;;;;;14.30;8.05;;;11.60;99.90;;;;;;4954288;28;20042;-89
2021/05/26 07:37:50;;;;;;;23.48;10.30;;;11.40;99.90;;;;;;4977168;28;20049;-90
2021/05/26 07:40:18;;;;;;;13.60;5.43;;;11.50;99.90;;;;;;4983770;28;20050;-89
2021/05/26 07:42:46;;;;;;;14.40;6.28;;;11.50;99.90;;;;;;4979366;28;20501;-87
2021/05/26 07:45:14;;;;;;;11.25;4.82;;;11.50;99.90;;;;;;5002349;28;20045;-85
2021/05/26 07:47:42;;;;;;;6.97;3.80;;;11.50;99.90;;;;;;4974832;28;20054;-85
2021/05/26 07:50:11;;;;;;;8.48;4.63;;;11.50;99.90;;;;;;4981178;28;20434;-87
2021/05/26 07:52:38;;;;;;;9.88;4.47;;;11.50;99.90;;;;;;5009007;28;20061;-86
2021/05/26 07:55:13;;;;;;;7.75;4.15;;;11.40;99.90;;;;;;4997377;28;20056;-83
2021/05/26 07:57:42;;;;;;;17.23;4.53;;;11.50;99.90;;;;;;5009736;28;20602;-87
2021/05/26 08:00:10;;;;;;;9.55;4.30;;;11.50;99.90;;;;;;4982546;28;20469;-85
2021/05/26 08:02:40;;;;;;;10.55;3.75;;;11.50;99.90;;;;;;5002553;28;20069;-85
2021/05/26 08:05:09;;;;;;;13.18;4.93;;;11.40;99.90;;;;;;4984613;28;20434;-86
2021/05/26 08:07:37;;;;;;;10.07;4.47;;;11.40;99.90;;;;;;5000372;28;20053;-86
2021/05/26 08:10:06;;;;;;;10.60;5.55;;;11.30;99.90;;;;;;4999388;28;20053;-87
2021/05/26 08:12:34;;;;;;;10.10;4.82;;;11.30;99.90;;;;;;5000037;28;20053;-89
2021/05/26 08:15:07;;;;;;;11.25;5.03;;;11.20;99.90;;;;;;4988208;28;20413;-89
2021/05/26 08:17:35;;;;;;;9.88;4.68;;;11.40;99.90;;;;;;4970606;28;20046;-89
2021/05/26 08:20:05;;;;;;;11.60;5.65;;;11.40;99.90;;;;;;5002836;28;20054;-88
2021/05/26 08:22:33;;;;;;;8.55;4.53;;;11.50;99.90;;;;;;4969857;28;20629;-87
2021/05/26 08:25:03;;;;;;;13.23;5.90;;;11.60;99.90;;;;;;4962040;28;20069;-90
2021/05/26 08:27:31;;;;;;;9.55;4.65;;;11.60;99.90;;;;;;4988696;28;20065;-89
2021/05/26 08:30:01;;;;;;;11.13;6.32;;;12.50;99.90;;;;;;4986399;28;20469;-89
2021/05/26 08:32:29;;;;;;;12.40;5.65;;;11.60;99.90;;;;;;4988709;28;20054;-90
2021/05/26 08:35:03;;;;;;;11.95;5.28;;;11.70;99.90;;;;;;4973494;28;20061;-88
2021/05/26 08:37:32;;;;;;;15.65;5.75;;;11.70;99.90;;;;;;4986380;28;20161;-88
2021/05/26 08:40:00;;;;;;;13.75;5.25;;;11.70;99.90;;;;;;4989527;28;20472;-88
2021/05/26 08:42:30;;;;;;;10.07;5.28;;;11.70;99.90;;;;;;4987587;28;20052;-89
2021/05/26 08:44:58;;;;;;;13.10;5.68;;;11.70;99.90;;;;;;4992309;28;20394;-88
2021/05/26 08:47:28;;;;;;;11.50;5.43;;;11.50;99.90;;;;;;5005387;28;20447;-89
2021/05/26 08:49:57;;;;;;;13.70;5.60;;;11.80;99.90;;;;;;4981184;28;20091;-88
2021/05/26 08:52:27;;;;;;;17.00;6.05;;;11.90;99.90;;;;;;4987687;28;20054;-88
2021/05/26 08:54:55;;;;;;;13.50;4.38;;;12.00;99.90;;;;;;4988462;28;20081;-88
2021/05/26 08:57:26;;;;;;;9.82;5.40;;;12.10;99.90;;;;;;5004212;28;20049;-90
2021/05/26 08:59:54;;;;;;;12.63;5.20;;;12.30;99.90;;;;;;4973021;28;20539;-89
2021/05/26 09:02:21;;;;;;;8.68;4.93;;;12.30;99.90;;;;;;4971080;28;20046;-89
2021/05/26 09:04:52;;;;;;;41.65;10.18;;;12.40;99.90;;;;;;5006322;28;20433;-89
2021/05/26 09:07:23;;;;;;;31.42;8.73;;;12.50;99.90;;;;;;4987232;28;20045;-89
2021/05/26 09:10:05;;;;;;;8.07;5.80;;;12.60;99.90;;;;;;4969890;28;20062;-90
2021/05/26 09:12:38;;;;;;;13.30;6.18;;;12.70;99.90;;;;;;4990145;28;20127;-89
2021/05/26 09:15:21;;;;;;;12.57;5.60;;;12.80;99.90;;;;;;4985378;28;20046;-90
2021/05/26 09:17:55;;;;;;;11.48;5.28;;;12.90;99.90;;;;;;5001634;28;20537;-90
2021/05/26 09:20:23;;;;;;;9.27;4.28;;;13.00;99.90;;;;;;4999308;28;20050;-89
2021/05/26 09:23:07;;;;;;;11.50;4.90;;;13.10;99.90;;;;;;4979368;28;20069;-90
2021/05/26 09:25:59;;;;;;;9.98;5.15;;;13.30;99.90;;;;;;5001958;28;20062;-89
2021/05/26 09:28:34;;;;;;;9.35;5.22;;;13.50;99.90;;;;;;4996426;28;20259;-90
2021/05/26 09:31:08;;;;;;;8.70;4.85;;;13.60;99.90;;;;;;5000622;28;20225;-89
2021/05/26 09:33:52;;;;;;;10.40;4.65;;;13.60;99.90;;;;;;4972021;28;20401;-89
2021/05/26 09:36:22;;;;;;;9.98;5.00;;;13.70;99.90;;;;;;5001222;28;20049;-88
2021/05/26 09:38:51;;;;;;;8.98;4.25;;;14.00;99.90;;;;;;5007100;28;20050;-89
2021/05/26 09:41:26;;;;;;;9.35;3.78;;;13.80;99.90;;;;;;4979941;28;20056;-89
2021/05/26 09:44:10;;;;;;;8.80;3.67;;;14.10;99.90;;;;;;5006130;28;20468;-89
2021/05/26 09:46:41;;;;;;;8.98;3.55;;;14.00;99.90;;;;;;4977870;28;20053;-89
2021/05/26 09:49:17;;;;;;;21.98;5.45;;;14.10;99.90;;;;;;5004605;28;20615;-89
2021/05/26 09:51:51;;;;;;;7.57;3.85;;;14.30;99.90;;;;;;4991015;28;20500;-89
2021/05/26 09:54:29;;;;;;;6.80;3.60;;;14.30;99.90;;;;;;4990682;28;20046;-89
2021/05/26 09:57:03;;;;;;;6.88;3.42;;;14.30;99.90;;;;;;4981021;28;20056;-89
2021/05/26 09:59:32;;;;;;;14.77;3.35;;;14.30;99.90;;;;;;4989667;28;20049;-88
2021/05/26 10:02:06;;;;;;;7.75;4.00;;;14.40;99.90;;;;;;5011353;28;20417;-90
2021/05/26 10:04:41;;;;;;;6.45;3.40;;;14.30;99.90;;;;;;4986145;28;20049;-88
2021/05/26 10:07:30;;;;;;;6.15;3.00;;;14.30;99.90;;;;;;5005911;28;20062;-90
2021/05/26 10:09:59;;;;;;;8.27;4.32;;;14.30;99.90;;;;;;4992937;28;20061;-89
2021/05/26 10:12:33;;;;;;;3.95;3.08;;;14.20;99.90;;;;;;4976686;28;20053;-89
2021/05/26 10:15:09;;;;;;;6.20;3.72;;;14.20;99.90;;;;;;4979841;28;20046;-88
2021/05/26 10:17:49;;;;;;;6.20;2.65;;;14.20;99.90;;;;;;4994125;28;20474;-91
2021/05/26 10:20:20;;;;;;;6.65;3.28;;;14.10;99.90;;;;;;4962541;28;20413;-90
2021/05/26 10:22:49;;;;;;;5.63;2.80;;;14.00;99.90;;;;;;4966463;28;20057;-89
2021/05/26 10:25:21;;;;;;;11.27;3.25;;;14.10;99.90;;;;;;4981528;28;20050;-91
2021/05/26 10:27:55;;;;;;;9.85;3.40;;;14.10;99.90;;;;;;4997059;28;20047;-91
2021/05/26 10:30:26;;;;;;;6.15;2.80;;;13.70;99.90;;;;;;4980532;28;20054;-89
2021/05/26 10:33:04;;;;;;;4.32;3.17;;;14.00;99.90;;;;;;4959281;28;20041;-89
2021/05/26 10:35:52;;;;;;;8.88;2.75;;;14.00;99.90;;;;;;4973411;28;20045;-90
2021/05/26 10:38:21;;;;;;;5.78;2.67;;;13.90;99.90;;;;;;5005273;28;20057;-91
2021/05/26 10:40:52;;;;;;;13.03;2.30;;;13.80;99.90;;;;;;4955758;28;20050;-91
2021/05/26 10:43:21;;;;;;;17.15;5.55;;;13.80;99.90;;;;;;5000463;28;20314;-91
2021/05/26 10:45:51;;;;;;;6.63;2.80;;;13.80;99.90;;;;;;4988075;28;20678;-90
2021/05/26 10:48:43;;;;;;;5.13;2.67;;;13.80;99.90;;;;;;4953825;28;20049;-90
2021/05/26 10:51:14;;;;;;;11.52;2.60;;;14.00;99.90;;;;;;4957630;28;20049;-91
2021/05/26 10:53:43;;;;;;;10.45;2.95;;;14.20;99.90;;;;;;4974021;28;20052;-90
2021/05/26 10:56:34;;;;;;;3.50;2.15;;;14.50;99.90;;;;;;4972445;28;20050;-91
2021/05/26 10:59:14;;;;;;;4.47;2.63;;;14.80;99.90;;;;;;4985014;28;20406;-91
2021/05/26 11:02:11;;;;;;;5.20;2.30;;;14.90;99.90;;;;;;4991206;28;20085;-90
2021/05/26 11:04:40;;;;;;;6.28;2.00;;;15.00;99.90;;;;;;4962103;28;20060;-91
2021/05/26 11:07:21;;;;;;;4.60;2.35;;;15.10;99.90;;;;;;4988372;28;20057;-91
2021/05/26 11:10:01;;;;;;;5.53;3.05;;;15.00;99.90;;;;;;4972269;28;20051;-90
2021/05/26 11:12:57;;;;;;;8.57;2.60;;;14.90;99.90;;;;;;4962091;28;20069;-90
2021/05/26 11:15:42;;;;;;;8.30;2.45;;;14.70;99.90;;;;;;4985889;28;20062;-90
2021/05/26 11:18:17;;;;;;;11.82;2.63;;;14.70;99.90;;;;;;4981348;28;20061;-89
2021/05/26 11:20:48;;;;;;;5.05;2.20;;;14.70;99.90;;;;;;5003534;28;20054;-90
2021/05/26 11:23:16;;;;;;;7.18;2.63;;;14.80;99.90;;;;;;4973393;28;20608;-89
2021/05/26 11:25:56;;;;;;;5.38;2.13;;;14.90;99.90;;;;;;4974761;28;20486;-91
2021/05/26 11:28:49;;;;;;;5.43;1.90;;;15.10;99.90;;;;;;4976381;28;20420;-92
2021/05/26 11:31:16;;;;;;;1.60;1.50;;;15.30;99.90;;;;;;4970495;28;20049;-89
2021/05/26 11:34:07;;;;;;;3.53;2.13;;;15.40;99.90;;;;;;4979037;28;20409;-90
2021/05/26 11:36:46;;;;;;;;;;;15.40;99.90;;;;;;4985086;28;20054;-90
2021/05/26 11:39:28;;;;;;;15.15;6.53;;;15.40;99.90;;;;;;5005312;28;19925;-90
2021/05/26 11:42:20;;;;;;;5.03;2.78;;;15.40;99.90;;;;;;4965671;28;20054;-91
2021/05/26 11:45:00;;;;;;;9.63;2.75;;;15.50;99.90;;;;;;4985086;28;20079;-89
2021/05/26 11:47:37;;;;;;;5.50;2.75;;;15.60;99.90;;;;;;4985350;28;20049;-91
2021/05/26 11:50:17;;;;;;;4.05;2.08;;;15.80;99.90;;;;;;4954946;28;20037;-90
2021/05/26 11:53:01;;;;;;;6.80;2.55;;;15.90;99.90;;;;;;4986053;28;20077;-93
2021/05/26 11:55:29;;;;;;;7.90;2.42;;;16.10;99.90;;;;;;4978789;28;20053;-91
2021/05/26 11:57:57;;;;;;;3.72;1.90;;;16.20;99.90;;;;;;4972762;28;20560;-90
2021/05/26 12:00:31;;;;;;;2.83;2.15;;;16.10;99.90;;;;;;4983715;28;20046;-91
2021/05/26 12:03:00;;;;;;;5.47;3.17;;;16.20;99.90;;;;;;4972225;28;20050;-91
2021/05/26 12:05:50;;;;;;;2.88;1.55;;;16.20;99.90;;;;;;4988426;28;20609;-91
2021/05/26 12:08:23;;;;;;;4.57;2.15;;;16.20;99.90;;;;;;4970230;28;20762;-91
2021/05/26 12:10:54;;;;;;;2.47;1.40;;;16.40;99.90;;;;;;4971487;28;20057;-91
2021/05/26 12:13:24;;;;;;;3.58;1.63;;;16.60;99.90;;;;;;4971747;28;20053;-91
2021/05/26 12:15:56;;;;;;;2.75;1.40;;;16.80;99.90;;;;;;4988780;28;20521;-90
2021/05/26 12:18:27;;;;;;;6.38;1.63;;;16.90;99.90;;;;;;5007676;28;20046;-91
2021/05/26 12:20:57;;;;;;;1.97;1.40;;;17.10;99.90;;;;;;5002583;28;20050;-93
2021/05/26 12:23:37;;;;;;;3.15;1.13;;;17.40;99.90;;;;;;5006059;28;20569;-89
2021/05/26 12:26:32;;;;;;;3.92;1.65;;;17.40;99.90;;;;;;4987281;28;20049;-90
2021/05/26 12:29:03;;;;;;;3.97;1.70;;;17.40;99.90;;;;;;4981153;28;20042;-91
2021/05/26 12:31:31;;;;;;;3.33;1.92;;;17.30;99.90;;;;;;4981784;28;20041;-93
2021/05/26 12:34:01;;;;;;;20.17;3.22;;;17.30;99.90;;;;;;4958088;28;20053;-87
2021/05/26 12:36:30;;;;;;;7.53;1.70;;;17.20;99.90;;;;;;4982577;28;20061;-92
2021/05/26 12:39:00;;;;;;;2.55;1.48;;;17.10;99.90;;;;;;4958372;28;20145;-89
2021/05/26 12:41:34;;;;;;;3.00;1.75;;;17.10;99.90;;;;;;4957267;28;20049;-89
2021/05/26 12:44:19;;;;;;;2.70;1.35;;;17.30;99.90;;;;;;5010255;28;20410;-92
2021/05/26 12:46:52;;;;;;;8.70;1.50;;;17.40;99.90;;;;;;4974189;28;20817;-91
2021/05/26 12:49:32;;;;;;;4.65;2.13;;;17.30;99.90;;;;;;4989122;28;20051;-91
2021/05/26 12:52:09;;;;;;;5.68;1.33;;;17.30;99.50;;;;;;4977129;28;20050;-90
2021/05/26 12:54:44;;;;;;;2.80;1.25;;;17.10;99.70;;;;;;4986897;28;20050;-91
2021/05/26 12:57:22;;;;;;;9.45;1.98;;;17.00;99.90;;;;;;5000837;28;20076;-89
2021/05/26 12:59:52;;;;;;;2.65;1.58;;;16.90;99.90;;;;;;4966035;28;20053;-90
2021/05/26 13:02:46;;;;;;;6.20;1.92;;;17.00;99.90;;;;;;4966703;28;20054;-91
2021/05/26 13:05:28;;;;;;;3.13;1.48;;;17.10;99.90;;;;;;4982543;28;20058;-94
2021/05/26 13:08:16;;;;;;;5.13;1.35;;;17.30;99.90;;;;;;4967830;28;20065;-92
2021/05/26 13:11:00;;;;;;;3.53;1.52;;;17.60;98.60;;;;;;5009936;28;20045;-92
2021/05/26 13:13:30;;;;;;;2.97;1.25;;;17.90;98.40;;;;;;4995107;28;20065;-93